sensor_id;sensor_type;location;lat;lon;timestamp;temperature;humidity
2565;DHT22;1292;48.020;7.822;2022-12-04T06:45:42;3.10;99.90
2565;DHT22;1292;48.020;7.822;2022-12-04T06:48:09;3.00;99.90
2565;DHT22;1292;48.020;7.822;2022-12-04T06:50:35;3.00;99.90
2565;DHT22;1292;48.020;7.822;2022-12-04T06:53:02;2.90;99.90
2565;DHT22;1292;48.020;7.822;2022-12-04T06:55:29;2.80;99.90
2565;DHT22;1292;48.020;7.822;2022-12-04T06:57:56;2.80;99.90
2565;DHT22;1292;48.020;7.822;2022-12-04T07:00:23;2.90;99.90
2565;DHT22;1292;48.020;7.822;2022-12-04T07:02:51;3.00;99.90
2565;DHT22;1292;48.020;7.822;2022-12-04T07:05:18;3.00;99.90
2565;DHT22;1292;48.020;7.822;2022-12-04T07:07:45;3.00;99.90
2565;DHT22;1292;48.020;7.822;2022-12-04T07:10:11;3.00;99.90
2565;DHT22;1292;48.020;7.822;2022-12-04T07:12:38;3.00;99.90
2565;DHT22;1292;48.020;7.822;2022-12-04T07:15:06;3.00;99.90
2565;DHT22;1292;48.020;7.822;2022-12-04T07:17:33;3.00;99.90
2565;DHT22;1292;48.020;7.822;2022-12-04T07:20:01;3.00;99.90
2565;DHT22;1292;48.020;7.822;2022-12-04T07:22:28;3.00;99.90
2565;DHT22;1292;48.020;7.822;2022-12-04T07:24:55;3.00;99.90
2565;DHT22;1292;48.020;7.822;2022-12-04T07:27:21;3.10;99.90
2565;DHT22;1292;48.020;7.822;2022-12-04T07:29:50;3.10;99.90
2565;DHT22;1292;48.020;7.822;2022-12-04T07:32:17;3.10;99.90
2565;DHT22;1292;48.020;7.822;2022-12-04T07:34:44;3.20;99.90
2565;DHT22;1292;48.020;7.822;2022-12-04T07:37:13;3.20;99.90
2565;DHT22;1292;48.020;7.822;2022-12-04T07:39:39;3.20;99.90
2565;DHT22;1292;48.020;7.822;2022-12-04T07:42:06;3.20;99.90
2565;DHT22;1292;48.020;7.822;2022-12-04T07:44:33;3.20;99.90
2565;DHT22;1292;48.020;7.822;2022-12-04T07:47:00;3.30;99.90
2565;DHT22;1292;48.020;7.822;2022-12-04T07:49:27;3.30;99.90
2565;DHT22;1292;48.020;7.822;2022-12-04T07:51:54;3.30;99.90
2565;DHT22;1292;48.020;7.822;2022-12-04T07:54:22;3.30;99.90
2565;DHT22;1292;48.020;7.822;2022-12-04T07:56:49;3.20;99.90
2565;DHT22;1292;48.020;7.822;2022-12-04T07:59:16;3.20;99.90
2565;DHT22;1292;48.020;7.822;2022-12-04T08:01:43;3.20;99.90
2565;DHT22;1292;48.020;7.822;2022-12-04T08:04:10;3.20;99.90
2565;DHT22;1292;48.020;7.822;2022-12-04T08:06:37;3.10;99.90
2565;DHT22;1292;48.020;7.822;2022-12-04T08:09:05;3.10;99.90
2565;DHT22;1292;48.020;7.822;2022-12-04T08:11:33;3.00;99.90
2565;DHT22;1292;48.020;7.822;2022-12-04T08:14:02;3.00;99.90
2565;DHT22;1292;48.020;7.822;2022-12-04T08:16:31;3.00;99.90
2565;DHT22;1292;48.020;7.822;2022-12-04T08:18:58;3.00;99.90
2565;DHT22;1292;48.020;7.822;2022-12-04T08:21:28;3.00;99.90
2565;DHT22;1292;48.020;7.822;2022-12-04T08:23:56;3.10;99.90
2565;DHT22;1292;48.020;7.822;2022-12-04T08:26:26;3.10;99.90
2565;DHT22;1292;48.020;7.822;2022-12-04T08:28:56;3.10;99.90
2565;DHT22;1292;48.020;7.822;2022-12-04T08:31:24;3.00;99.90
2565;DHT22;1292;48.020;7.822;2022-12-04T08:33:53;2.90;99.90
2565;DHT22;1292;48.020;7.822;2022-12-04T08:36:21;2.90;99.90
2565;DHT22;1292;48.020;7.822;2022-12-04T08:38:49;2.90;99.90
2565;DHT22;1292;48.020;7.822;2022-12-04T08:41:18;3.00;99.90
2565;DHT22;1292;48.020;7.822;2022-12-04T08:43:48;3.10;99.90
2565;DHT22;1292;48.020;7.822;2022-12-04T08:46:17;3.20;99.90
2565;DHT22;1292;48.020;7.822;2022-12-04T08:48:45;3.20;99.90
2565;DHT22;1292;48.020;7.822;2022-12-04T08:51:14;3.10;99.90
2565;DHT22;1292;48.020;7.822;2022-12-04T08:53:41;3.20;99.90
2565;DHT22;1292;48.020;7.822;2022-12-04T08:56:09;3.20;99.90
2565;DHT22;1292;48.020;7.822;2022-12-04T08:58:36;3.20;99.90
2565;DHT22;1292;48.020;7.822;2022-12-04T09:01:04;3.10;99.90
2565;DHT22;1292;48.020;7.822;2022-12-04T09:03:33;3.10;99.90
2565;DHT22;1292;48.020;7.822;2022-12-04T09:06:00;3.10;99.90
2565;DHT22;1292;48.020;7.822;2022-12-04T09:08:29;3.10;99.90
2565;DHT22;1292;48.020;7.822;2022-12-04T09:11:01;3.20;99.90
2565;DHT22;1292;48.020;7.822;2022-12-04T09:13:29;3.20;99.90
2565;DHT22;1292;48.020;7.822;2022-12-04T09:15:55;3.20;99.90
2565;DHT22;1292;48.020;7.822;2022-12-04T09:18:22;3.30;99.90
2565;DHT22;1292;48.020;7.822;2022-12-04T09:20:55;3.30;99.90
2565;DHT22;1292;48.020;7.822;2022-12-04T09:23:23;3.40;99.90
2565;DHT22;1292;48.020;7.822;2022-12-04T09:25:50;3.20;99.90
2565;DHT22;1292;48.020;7.822;2022-12-04T09:28:17;3.20;99.90
2565;DHT22;1292;48.020;7.822;2022-12-04T09:30:44;3.20;99.90
2565;DHT22;1292;48.020;7.822;2022-12-04T09:33:11;3.30;99.90
2565;DHT22;1292;48.020;7.822;2022-12-04T09:35:38;3.40;99.90
2565;DHT22;1292;48.020;7.822;2022-12-04T09:38:07;3.40;99.90
2565;DHT22;1292;48.020;7.822;2022-12-04T09:40:38;3.40;99.90
2565;DHT22;1292;48.020;7.822;2022-12-04T09:43:13;3.50;99.90
2565;DHT22;1292;48.020;7.822;2022-12-04T09:45:46;3.50;99.90
2565;DHT22;1292;48.020;7.822;2022-12-04T09:48:15;3.50;99.90
2565;DHT22;1292;48.020;7.822;2022-12-04T09:50:45;3.50;99.90
2565;DHT22;1292;48.020;7.822;2022-12-04T09:53:17;3.50;99.90
2565;DHT22;1292;48.020;7.822;2022-12-04T09:55:49;3.60;99.90
2565;DHT22;1292;48.020;7.822;2022-12-04T09:58:21;3.60;99.90
2565;DHT22;1292;48.020;7.822;2022-12-04T10:00:52;3.70;99.90
2565;DHT22;1292;48.020;7.822;2022-12-04T10:03:29;3.70;99.90
2565;DHT22;1292;48.020;7.822;2022-12-04T10:06:06;3.80;99.90
2565;DHT22;1292;48.020;7.822;2022-12-04T10:08:41;3.70;99.90
2565;DHT22;1292;48.020;7.822;2022-12-04T10:11:16;3.80;99.90
2565;DHT22;1292;48.020;7.822;2022-12-04T10:14:04;3.80;99.90
2565;DHT22;1292;48.020;7.822;2022-12-04T10:16:46;3.60;99.90
2565;DHT22;1292;48.020;7.822;2022-12-04T10:19:24;3.50;99.90
2565;DHT22;1292;48.020;7.822;2022-12-04T10:22:00;3.40;99.90
2565;DHT22;1292;48.020;7.822;2022-12-04T10:24:40;3.40;99.90
2565;DHT22;1292;48.020;7.822;2022-12-04T10:27:16;3.50;99.90
2565;DHT22;1292;48.020;7.822;2022-12-04T10:29:49;3.60;99.90
2565;DHT22;1292;48.020;7.822;2022-12-04T10:32:20;3.60;99.90
2565;DHT22;1292;48.020;7.822;2022-12-04T10:34:51;3.70;99.90
2565;DHT22;1292;48.020;7.822;2022-12-04T10:37:19;3.60;99.90
2565;DHT22;1292;48.020;7.822;2022-12-04T10:39:52;3.60;99.90
2565;DHT22;1292;48.020;7.822;2022-12-04T10:42:26;3.50;99.90
2565;DHT22;1292;48.020;7.822;2022-12-04T10:44:54;3.40;99.90
2565;DHT22;1292;48.020;7.822;2022-12-04T10:47:21;3.50;99.90
2565;DHT22;1292;48.020;7.822;2022-12-04T10:49:58;3.70;99.90
2565;DHT22;1292;48.020;7.822;2022-12-04T10:52:31;3.80;99.90
2565;DHT22;1292;48.020;7.822;2022-12-04T10:55:01;3.80;99.90
2565;DHT22;1292;48.020;7.822;2022-12-04T10:57:37;3.80;99.90
2565;DHT22;1292;48.020;7.822;2022-12-04T11:00:23;3.80;99.90
2565;DHT22;1292;48.020;7.822;2022-12-04T11:02:52;3.90;99.90
2565;DHT22;1292;48.020;7.822;2022-12-04T11:05:25;3.90;99.90
2565;DHT22;1292;48.020;7.822;2022-12-04T11:07:54;4.00;99.90
2565;DHT22;1292;48.020;7.822;2022-12-04T11:10:25;4.10;99.90
2565;DHT22;1292;48.020;7.822;2022-12-04T11:12:59;4.10;99.90
2565;DHT22;1292;48.020;7.822;2022-12-04T11:15:26;4.10;99.90
2565;DHT22;1292;48.020;7.822;2022-12-04T11:17:53;4.00;99.90
2565;DHT22;1292;48.020;7.822;2022-12-04T11:20:25;4.10;99.90
2565;DHT22;1292;48.020;7.822;2022-12-04T11:23:03;4.10;99.90
2565;DHT22;1292;48.020;7.822;2022-12-04T11:25:42;4.10;99.90
2565;DHT22;1292;48.020;7.822;2022-12-04T11:28:16;4.10;99.90
2565;DHT22;1292;48.020;7.822;2022-12-04T11:31:01;4.10;99.90
2565;DHT22;1292;48.020;7.822;2022-12-04T11:33:41;4.10;99.90
2565;DHT22;1292;48.020;7.822;2022-12-04T11:36:26;3.80;99.90
2565;DHT22;1292;48.020;7.822;2022-12-04T11:39:05;3.90;99.90
2565;DHT22;1292;48.020;7.822;2022-12-04T11:41:36;3.90;99.90
2565;DHT22;1292;48.020;7.822;2022-12-04T11:44:05;3.90;99.90
2565;DHT22;1292;48.020;7.822;2022-12-04T11:46:34;3.90;99.90
2565;DHT22;1292;48.020;7.822;2022-12-04T11:49:01;4.00;99.90
2565;DHT22;1292;48.020;7.822;2022-12-04T11:51:42;4.00;99.90
2565;DHT22;1292;48.020;7.822;2022-12-04T11:54:22;4.10;99.90
2565;DHT22;1292;48.020;7.822;2022-12-04T11:57:01;4.20;99.90
2565;DHT22;1292;48.020;7.822;2022-12-04T11:59:45;4.30;99.90
2565;DHT22;1292;48.020;7.822;2022-12-04T12:02:34;4.40;99.90
2565;DHT22;1292;48.020;7.822;2022-12-04T12:05:23;4.40;99.90
2565;DHT22;1292;48.020;7.822;2022-12-04T12:08:13;4.40;99.90
2565;DHT22;1292;48.020;7.822;2022-12-04T12:10:56;4.30;99.90
2565;DHT22;1292;48.020;7.822;2022-12-04T12:13:34;4.40;99.90
2565;DHT22;1292;48.020;7.822;2022-12-04T12:16:14;4.40;99.90
2565;DHT22;1292;48.020;7.822;2022-12-04T12:18:57;4.30;99.90
2565;DHT22;1292;48.020;7.822;2022-12-04T12:21:39;4.20;99.90
2565;DHT22;1292;48.020;7.822;2022-12-04T12:24:21;4.20;99.90
2565;DHT22;1292;48.020;7.822;2022-12-04T12:26:58;4.10;99.90
2565;DHT22;1292;48.020;7.822;2022-12-04T12:29:40;4.10;99.90
2565;DHT22;1292;48.020;7.822;2022-12-04T12:35:02;4.00;99.90
2565;DHT22;1292;48.020;7.822;2022-12-04T12:37:37;3.90;99.90
2565;DHT22;1292;48.020;7.822;2022-12-04T12:40:13;3.90;99.90
2565;DHT22;1292;48.020;7.822;2022-12-04T12:42:48;4.00;99.90
2565;DHT22;1292;48.020;7.822;2022-12-04T12:45:27;4.00;99.90
2565;DHT22;1292;48.020;7.822;2022-12-04T12:48:05;3.90;99.90
2565;DHT22;1292;48.020;7.822;2022-12-04T12:50:41;3.90;99.90
2565;DHT22;1292;48.020;7.822;2022-12-04T12:53:15;4.00;99.90
2565;DHT22;1292;48.020;7.822;2022-12-04T12:55:48;4.00;99.90
2565;DHT22;1292;48.020;7.822;2022-12-04T12:58:23;4.00;99.90
2565;DHT22;1292;48.020;7.822;2022-12-04T13:01:01;4.00;99.90
2565;DHT22;1292;48.020;7.822;2022-12-04T13:03:37;4.00;99.90
2565;DHT22;1292;48.020;7.822;2022-12-04T13:06:11;4.00;99.90
2565;DHT22;1292;48.020;7.822;2022-12-04T13:08:47;4.00;99.90
2565;DHT22;1292;48.020;7.822;2022-12-04T13:11:20;3.90;99.90
2565;DHT22;1292;48.020;7.822;2022-12-04T13:13:50;3.90;99.90
2565;DHT22;1292;48.020;7.822;2022-12-04T13:16:23;3.80;99.90
2565;DHT22;1292;48.020;7.822;2022-12-04T13:19:01;3.80;99.90
2565;DHT22;1292;48.020;7.822;2022-12-04T13:21:32;3.80;99.90
2565;DHT22;1292;48.020;7.822;2022-12-04T13:24:46;3.90;99.90
2565;DHT22;1292;48.020;7.822;2022-12-04T13:27:26;3.90;99.90
2565;DHT22;1292;48.020;7.822;2022-12-04T13:30:03;3.80;99.90
2565;DHT22;1292;48.020;7.822;2022-12-04T13:36:01;3.80;99.90
2565;DHT22;1292;48.020;7.822;2022-12-04T13:38:37;3.80;99.90
2565;DHT22;1292;48.020;7.822;2022-12-04T13:41:10;3.80;99.90
2565;DHT22;1292;48.020;7.822;2022-12-04T13:43:45;3.70;99.90
2565;DHT22;1292;48.020;7.822;2022-12-04T13:46:28;3.60;99.90
2565;DHT22;1292;48.020;7.822;2022-12-04T13:49:09;3.70;99.90
2565;DHT22;1292;48.020;7.822;2022-12-04T13:51:50;3.70;99.90
2565;DHT22;1292;48.020;7.822;2022-12-04T13:54:24;3.80;99.90
2565;DHT22;1292;48.020;7.822;2022-12-04T13:56:54;3.70;99.90
2565;DHT22;1292;48.020;7.822;2022-12-04T13:59:33;3.60;99.90
2565;DHT22;1292;48.020;7.822;2022-12-04T14:02:03;3.60;99.90
2565;DHT22;1292;48.020;7.822;2022-12-04T14:04:39;3.60;99.90
2565;DHT22;1292;48.020;7.822;2022-12-04T14:07:23;3.50;99.90
2565;DHT22;1292;48.020;7.822;2022-12-04T14:09:52;3.50;99.90
2565;DHT22;1292;48.020;7.822;2022-12-04T14:12:26;3.50;99.90
2565;DHT22;1292;48.020;7.822;2022-12-04T14:15:00;3.60;99.90
2565;DHT22;1292;48.020;7.822;2022-12-04T14:17:35;3.50;99.90
2565;DHT22;1292;48.020;7.822;2022-12-04T14:20:07;3.60;99.90
2565;DHT22;1292;48.020;7.822;2022-12-04T14:22:48;3.60;99.90
2565;DHT22;1292;48.020;7.822;2022-12-04T14:25:33;3.60;99.90
2565;DHT22;1292;48.020;7.822;2022-12-04T14:28:20;3.60;99.90
2565;DHT22;1292;48.020;7.822;2022-12-04T14:31:26;3.60;99.90
2565;DHT22;1292;48.020;7.822;2022-12-04T14:34:00;3.60;99.90
2565;DHT22;1292;48.020;7.822;2022-12-04T14:36:46;3.70;99.90
2565;DHT22;1292;48.020;7.822;2022-12-04T14:39:24;3.80;99.90
2565;DHT22;1292;48.020;7.822;2022-12-04T14:42:05;3.80;99.90
2565;DHT22;1292;48.020;7.822;2022-12-04T14:44:35;3.70;99.90
2565;DHT22;1292;48.020;7.822;2022-12-04T14:47:11;3.70;99.90
2565;DHT22;1292;48.020;7.822;2022-12-04T14:49:48;3.70;99.90
2565;DHT22;1292;48.020;7.822;2022-12-04T14:52:30;3.80;99.90
2565;DHT22;1292;48.020;7.822;2022-12-04T14:55:03;3.70;99.90
2565;DHT22;1292;48.020;7.822;2022-12-04T14:57:45;3.70;99.90
2565;DHT22;1292;48.020;7.822;2022-12-04T15:00:15;3.70;99.90
2565;DHT22;1292;48.020;7.822;2022-12-04T15:02:44;3.70;99.90
2565;DHT22;1292;48.020;7.822;2022-12-04T15:05:18;3.80;99.90
2565;DHT22;1292;48.020;7.822;2022-12-04T15:07:50;3.80;99.90
2565;DHT22;1292;48.020;7.822;2022-12-04T15:10:22;3.80;99.90
2565;DHT22;1292;48.020;7.822;2022-12-04T15:13:06;3.90;99.90
2565;DHT22;1292;48.020;7.822;2022-12-04T15:15:33;3.90;99.90
2565;DHT22;1292;48.020;7.822;2022-12-04T15:18:03;3.90;99.90
2565;DHT22;1292;48.020;7.822;2022-12-04T15:20:32;3.90;99.90
2565;DHT22;1292;48.020;7.822;2022-12-04T15:23:02;3.90;99.90
2565;DHT22;1292;48.020;7.822;2022-12-04T15:25:33;4.00;99.90
2565;DHT22;1292;48.020;7.822;2022-12-04T15:28:07;4.00;99.90
2565;DHT22;1292;48.020;7.822;2022-12-04T15:30:39;4.00;99.90
2565;DHT22;1292;48.020;7.822;2022-12-04T15:33:09;4.00;99.90
2565;DHT22;1292;48.020;7.822;2022-12-04T15:35:39;3.90;99.90
2565;DHT22;1292;48.020;7.822;2022-12-04T15:38:11;4.00;99.90
2565;DHT22;1292;48.020;7.822;2022-12-04T15:40:49;4.00;99.90
2565;DHT22;1292;48.020;7.822;2022-12-04T15:43:16;4.00;99.90
2565;DHT22;1292;48.020;7.822;2022-12-04T15:45:49;3.90;99.90
2565;DHT22;1292;48.020;7.822;2022-12-04T15:48:23;3.90;99.90
2565;DHT22;1292;48.020;7.822;2022-12-04T15:50:59;3.90;99.90
2565;DHT22;1292;48.020;7.822;2022-12-04T15:53:31;4.00;99.90
2565;DHT22;1292;48.020;7.822;2022-12-04T15:56:03;4.00;99.90
2565;DHT22;1292;48.020;7.822;2022-12-04T15:58:33;4.00;99.90
2565;DHT22;1292;48.020;7.822;2022-12-04T16:01:04;4.00;99.90
2565;DHT22;1292;48.020;7.822;2022-12-04T16:03:36;4.00;99.90
2565;DHT22;1292;48.020;7.822;2022-12-04T16:06:16;3.90;99.90
2565;DHT22;1292;48.020;7.822;2022-12-04T16:08:47;3.90;99.90
2565;DHT22;1292;48.020;7.822;2022-12-04T16:11:32;3.80;99.90
2565;DHT22;1292;48.020;7.822;2022-12-04T16:14:11;3.70;99.90
2565;DHT22;1292;48.020;7.822;2022-12-04T16:16:45;3.70;99.90
2565;DHT22;1292;48.020;7.822;2022-12-04T16:19:17;3.50;99.90
2565;DHT22;1292;48.020;7.822;2022-12-04T16:21:47;3.70;99.90
2565;DHT22;1292;48.020;7.822;2022-12-04T16:24:16;3.80;99.90
2565;DHT22;1292;48.020;7.822;2022-12-04T16:26:43;3.80;99.90
2565;DHT22;1292;48.020;7.822;2022-12-04T16:29:10;3.80;99.90
2565;DHT22;1292;48.020;7.822;2022-12-04T16:31:37;3.90;99.90
2565;DHT22;1292;48.020;7.822;2022-12-04T16:34:04;3.80;99.90
2565;DHT22;1292;48.020;7.822;2022-12-04T16:36:31;3.80;99.90
2565;DHT22;1292;48.020;7.822;2022-12-04T16:38:58;3.80;99.90
2565;DHT22;1292;48.020;7.822;2022-12-04T16:41:27;3.70;99.90
2565;DHT22;1292;48.020;7.822;2022-12-04T16:43:56;3.80;99.90
2565;DHT22;1292;48.020;7.822;2022-12-04T16:46:25;3.90;99.90
2565;DHT22;1292;48.020;7.822;2022-12-04T16:48:52;3.70;99.90
2565;DHT22;1292;48.020;7.822;2022-12-04T16:51:20;3.60;99.90
2565;DHT22;1292;48.020;7.822;2022-12-04T16:53:48;3.70;99.90
2565;DHT22;1292;48.020;7.822;2022-12-04T16:56:15;3.80;99.90
2565;DHT22;1292;48.020;7.822;2022-12-04T16:58:43;3.70;99.90
2565;DHT22;1292;48.020;7.822;2022-12-04T17:01:19;3.80;99.90
2565;DHT22;1292;48.020;7.822;2022-12-04T17:03:47;3.50;99.90
2565;DHT22;1292;48.020;7.822;2022-12-04T17:06:15;3.60;99.90
2565;DHT22;1292;48.020;7.822;2022-12-04T17:08:43;3.60;99.90
2565;DHT22;1292;48.020;7.822;2022-12-04T17:11:12;3.60;99.90
2565;DHT22;1292;48.020;7.822;2022-12-04T17:13:39;3.70;99.90
2565;DHT22;1292;48.020;7.822;2022-12-04T17:16:07;3.60;99.90
2565;DHT22;1292;48.020;7.822;2022-12-04T17:18:34;3.70;99.90
2565;DHT22;1292;48.020;7.822;2022-12-04T17:21:04;3.80;99.90
2565;DHT22;1292;48.020;7.822;2022-12-04T17:23:39;3.80;99.90
2565;DHT22;1292;48.020;7.822;2022-12-04T17:26:17;3.80;99.90
2565;DHT22;1292;48.020;7.822;2022-12-04T17:28:55;3.80;99.90
2565;DHT22;1292;48.020;7.822;2022-12-04T17:31:28;3.80;99.90
2565;DHT22;1292;48.020;7.822;2022-12-04T17:34:00;3.90;99.90
2565;DHT22;1292;48.020;7.822;2022-12-04T17:36:32;3.90;99.90
2565;DHT22;1292;48.020;7.822;2022-12-04T17:39:06;4.00;99.90
2565;DHT22;1292;48.020;7.822;2022-12-04T17:41:38;4.10;99.90
2565;DHT22;1292;48.020;7.822;2022-12-04T17:44:06;4.00;99.90
2565;DHT22;1292;48.020;7.822;2022-12-04T17:46:34;4.00;99.90
2565;DHT22;1292;48.020;7.822;2022-12-04T17:49:01;4.00;99.90
2565;DHT22;1292;48.020;7.822;2022-12-04T17:51:28;4.10;99.90
2565;DHT22;1292;48.020;7.822;2022-12-04T17:53:55;4.00;99.90
2565;DHT22;1292;48.020;7.822;2022-12-04T17:56:23;4.10;99.90
2565;DHT22;1292;48.020;7.822;2022-12-04T17:58:53;4.10;99.90
2565;DHT22;1292;48.020;7.822;2022-12-04T18:01:24;4.20;99.90
2565;DHT22;1292;48.020;7.822;2022-12-04T18:03:57;4.20;99.90
2565;DHT22;1292;48.020;7.822;2022-12-04T18:06:27;4.30;99.90
2565;DHT22;1292;48.020;7.822;2022-12-04T18:09:02;4.30;99.90
2565;DHT22;1292;48.020;7.822;2022-12-04T18:11:41;4.30;99.90
2565;DHT22;1292;48.020;7.822;2022-12-04T18:14:18;4.30;99.90
2565;DHT22;1292;48.020;7.822;2022-12-04T18:16:53;4.30;99.90
2565;DHT22;1292;48.020;7.822;2022-12-04T18:19:25;4.40;99.90
2565;DHT22;1292;48.020;7.822;2022-12-04T18:21:54;4.40;99.90
2565;DHT22;1292;48.020;7.822;2022-12-04T18:24:24;4.40;99.90
2565;DHT22;1292;48.020;7.822;2022-12-04T18:26:51;4.40;99.90
2565;DHT22;1292;48.020;7.822;2022-12-04T18:29:20;4.30;99.90
2565;DHT22;1292;48.020;7.822;2022-12-04T18:31:48;4.40;99.90
2565;DHT22;1292;48.020;7.822;2022-12-04T18:34:16;4.40;99.90
2565;DHT22;1292;48.020;7.822;2022-12-04T18:36:44;4.30;99.90
2565;DHT22;1292;48.020;7.822;2022-12-04T18:39:13;4.30;99.90
2565;DHT22;1292;48.020;7.822;2022-12-04T18:41:41;4.40;99.90
2565;DHT22;1292;48.020;7.822;2022-12-04T18:44:26;4.40;99.90
2565;DHT22;1292;48.020;7.822;2022-12-04T18:47:10;4.40;99.90
2565;DHT22;1292;48.020;7.822;2022-12-04T18:49:38;4.40;99.90
2565;DHT22;1292;48.020;7.822;2022-12-04T18:52:07;4.20;99.90
2565;DHT22;1292;48.020;7.822;2022-12-04T18:54:42;4.30;99.90
2565;DHT22;1292;48.020;7.822;2022-12-04T18:57:10;4.40;99.90
2565;DHT22;1292;48.020;7.822;2022-12-04T18:59:39;4.40;99.90
2565;DHT22;1292;48.020;7.822;2022-12-04T19:02:14;4.40;99.90
2565;DHT22;1292;48.020;7.822;2022-12-04T19:04:45;4.40;99.90
2565;DHT22;1292;48.020;7.822;2022-12-04T19:07:16;4.40;99.90
2565;DHT22;1292;48.020;7.822;2022-12-04T19:09:49;4.10;99.90
2565;DHT22;1292;48.020;7.822;2022-12-04T19:12:21;4.00;99.90
2565;DHT22;1292;48.020;7.822;2022-12-04T19:14:51;4.10;99.90
2565;DHT22;1292;48.020;7.822;2022-12-04T19:17:53;4.10;99.90
2565;DHT22;1292;48.020;7.822;2022-12-04T19:20:20;4.20;99.90
2565;DHT22;1292;48.020;7.822;2022-12-04T19:22:48;4.30;99.90
2565;DHT22;1292;48.020;7.822;2022-12-04T19:25:15;4.20;99.90
2565;DHT22;1292;48.020;7.822;2022-12-04T19:27:42;4.30;99.90
2565;DHT22;1292;48.020;7.822;2022-12-04T19:30:10;4.20;99.90
2565;DHT22;1292;48.020;7.822;2022-12-04T19:32:37;4.30;99.90
2565;DHT22;1292;48.020;7.822;2022-12-04T19:35:06;4.10;99.90
2565;DHT22;1292;48.020;7.822;2022-12-04T19:37:34;4.10;99.90
2565;DHT22;1292;48.020;7.822;2022-12-04T19:40:05;4.10;99.90
2565;DHT22;1292;48.020;7.822;2022-12-04T19:42:32;4.10;99.90
2565;DHT22;1292;48.020;7.822;2022-12-04T19:44:59;4.20;99.90
2565;DHT22;1292;48.020;7.822;2022-12-04T19:47:26;4.20;99.90
2565;DHT22;1292;48.020;7.822;2022-12-04T19:49:53;4.20;99.90
2565;DHT22;1292;48.020;7.822;2022-12-04T19:52:20;4.10;99.90
2565;DHT22;1292;48.020;7.822;2022-12-04T19:54:47;4.20;99.90
2565;DHT22;1292;48.020;7.822;2022-12-04T19:57:18;4.20;99.90
2565;DHT22;1292;48.020;7.822;2022-12-04T19:59:46;4.30;99.90
2565;DHT22;1292;48.020;7.822;2022-12-04T20:02:14;4.30;99.90
2565;DHT22;1292;48.020;7.822;2022-12-04T20:04:41;4.30;99.90
2565;DHT22;1292;48.020;7.822;2022-12-04T20:07:14;4.30;99.90
2565;DHT22;1292;48.020;7.822;2022-12-04T20:09:45;4.30;99.90
2565;DHT22;1292;48.020;7.822;2022-12-04T20:12:21;4.20;99.90
2565;DHT22;1292;48.020;7.822;2022-12-04T20:14:52;4.20;99.90
2565;DHT22;1292;48.020;7.822;2022-12-04T20:17:19;4.20;99.90
2565;DHT22;1292;48.020;7.822;2022-12-04T20:19:47;4.20;99.90
2565;DHT22;1292;48.020;7.822;2022-12-04T20:22:18;4.20;99.90
2565;DHT22;1292;48.020;7.822;2022-12-04T20:24:49;4.30;99.90
2565;DHT22;1292;48.020;7.822;2022-12-04T20:27:16;4.20;99.90
2565;DHT22;1292;48.020;7.822;2022-12-04T20:33:09;4.20;99.90
2565;DHT22;1292;48.020;7.822;2022-12-04T20:35:38;4.10;99.90
2565;DHT22;1292;48.020;7.822;2022-12-04T20:38:06;4.20;99.90
2565;DHT22;1292;48.020;7.822;2022-12-04T20:40:34;4.10;99.90
2565;DHT22;1292;48.020;7.822;2022-12-04T20:43:09;4.20;99.90
2565;DHT22;1292;48.020;7.822;2022-12-04T20:45:38;4.20;99.90
2565;DHT22;1292;48.020;7.822;2022-12-04T20:48:06;4.20;99.90
2565;DHT22;1292;48.020;7.822;2022-12-04T20:50:39;4.20;99.90
2565;DHT22;1292;48.020;7.822;2022-12-04T20:53:17;4.30;99.90
2565;DHT22;1292;48.020;7.822;2022-12-04T20:55:51;4.10;99.90
2565;DHT22;1292;48.020;7.822;2022-12-04T20:58:18;4.00;99.90
2565;DHT22;1292;48.020;7.822;2022-12-04T21:00:45;3.90;99.90
2565;DHT22;1292;48.020;7.822;2022-12-04T21:03:13;4.00;99.90
2565;DHT22;1292;48.020;7.822;2022-12-04T21:05:47;4.00;99.90
2565;DHT22;1292;48.020;7.822;2022-12-04T21:08:14;4.10;99.90
2565;DHT22;1292;48.020;7.822;2022-12-04T21:11:01;4.10;99.90
2565;DHT22;1292;48.020;7.822;2022-12-04T21:13:28;4.10;99.90
2565;DHT22;1292;48.020;7.822;2022-12-04T21:16:13;4.10;99.90
2565;DHT22;1292;48.020;7.822;2022-12-04T21:18:40;4.10;99.90
2565;DHT22;1292;48.020;7.822;2022-12-04T21:21:08;4.20;99.90
2565;DHT22;1292;48.020;7.822;2022-12-04T21:23:35;4.20;99.90
2565;DHT22;1292;48.020;7.822;2022-12-04T21:26:02;4.20;99.90
2565;DHT22;1292;48.020;7.822;2022-12-04T21:28:29;4.20;99.90
2565;DHT22;1292;48.020;7.822;2022-12-04T21:30:59;4.20;99.90
2565;DHT22;1292;48.020;7.822;2022-12-04T21:33:28;4.20;99.90
2565;DHT22;1292;48.020;7.822;2022-12-04T21:36:00;4.10;99.90
2565;DHT22;1292;48.020;7.822;2022-12-04T21:38:33;4.20;99.90
2565;DHT22;1292;48.020;7.822;2022-12-04T21:41:06;4.20;99.90
2565;DHT22;1292;48.020;7.822;2022-12-04T21:43:36;4.10;99.90
2565;DHT22;1292;48.020;7.822;2022-12-04T21:46:06;4.20;99.90
2565;DHT22;1292;48.020;7.822;2022-12-04T21:48:38;4.20;99.90
2565;DHT22;1292;48.020;7.822;2022-12-04T21:51:09;4.20;99.90
2565;DHT22;1292;48.020;7.822;2022-12-04T21:53:42;4.20;99.90
2565;DHT22;1292;48.020;7.822;2022-12-04T21:56:12;4.10;99.90
2565;DHT22;1292;48.020;7.822;2022-12-04T21:58:42;4.10;99.90
